createdAt,value
2023-04-26T00:00:00.545Z,72.7
2023-04-26T00:01:01.234Z,72.9
2023-04-26T00:02:00.554Z,72.9
2023-04-26T00:03:00.745Z,72.8
2023-04-26T00:04:00.860Z,72.7
2023-04-26T00:05:00.780Z,72.6
2023-04-26T00:06:00.511Z,72.6
2023-04-26T00:07:00.548Z,72.5
2023-04-26T00:08:00.529Z,72.5
2023-04-26T00:09:00.512Z,72.5
2023-04-26T00:10:00.717Z,72.5
2023-04-26T00:11:00.593Z,72.5
2023-04-26T00:12:00.718Z,72.5
2023-04-26T00:13:00.574Z,72.5
2023-04-26T00:14:00.559Z,72.5
2023-04-26T00:15:00.529Z,72.5
2023-04-26T00:16:00.585Z,72.5
2023-04-26T00:17:00.487Z,72.5
2023-04-26T00:18:00.549Z,72.5
2023-04-26T00:19:00.628Z,72.5
2023-04-26T00:20:00.543Z,72.4
2023-04-26T00:21:00.532Z,72.4
2023-04-26T00:22:00.559Z,72.4
2023-04-26T00:23:00.511Z,72.5
2023-04-26T00:24:00.518Z,72.5
2023-04-26T00:25:00.592Z,72.6
2023-04-26T00:26:00.525Z,72.8
2023-04-26T00:27:00.526Z,72.9
2023-04-26T00:28:00.643Z,72.9
2023-04-26T00:29:01.119Z,72.9
2023-04-26T00:30:00.523Z,72.7
2023-04-26T00:31:00.533Z,72.6
2023-04-26T00:32:00.615Z,72.5
2023-04-26T00:33:00.558Z,72.4
2023-04-26T00:34:00.548Z,72.4
2023-04-26T00:35:02.104Z,72.4
2023-04-26T00:36:00.602Z,72.3
2023-04-26T00:37:00.816Z,72.3
2023-04-26T00:38:00.510Z,72.3
2023-04-26T00:39:00.507Z,72.4
2023-04-26T00:40:00.514Z,72.5
2023-04-26T00:41:00.532Z,72.6
2023-04-26T00:42:00.502Z,72.5
2023-04-26T00:43:02.251Z,72.4
2023-04-26T00:44:00.504Z,72.4
2023-04-26T00:45:00.880Z,72.4
2023-04-26T00:46:00.610Z,72.3
2023-04-26T00:47:00.779Z,72.4
2023-04-26T00:48:01.234Z,72.5
2023-04-26T00:49:00.768Z,72.4
2023-04-26T00:50:00.789Z,72.4
2023-04-26T00:51:00.598Z,72.2
2023-04-26T00:52:01.302Z,72.2
2023-04-26T00:53:01.578Z,72.2
2023-04-26T00:54:00.687Z,72.2
2023-04-26T00:55:01.369Z,72.3
2023-04-26T00:56:00.925Z,72.3
2023-04-26T00:57:01.292Z,72.2
2023-04-26T00:58:00.610Z,72.2
2023-04-26T00:59:01.570Z,72.3
2023-04-26T01:00:00.562Z,72.4
2023-04-26T01:01:00.598Z,72.3
2023-04-26T01:02:01.618Z,72.1
2023-04-26T01:03:00.764Z,72.0
2023-04-26T01:04:01.113Z,71.9
2023-04-26T01:05:00.585Z,72.0
2023-04-26T01:06:00.617Z,72.0
2023-04-26T01:07:00.910Z,72.1
2023-04-26T01:08:00.578Z,72.1
2023-04-26T01:09:02.600Z,72.0
2023-04-26T01:10:00.522Z,71.9
2023-04-26T01:11:00.742Z,72.0
2023-04-26T01:12:00.773Z,72.0
2023-04-26T01:13:02.671Z,72.0
2023-04-26T01:14:01.107Z,72.1
2023-04-26T01:15:00.895Z,72.1
2023-04-26T01:16:01.325Z,72.0
2023-04-26T01:17:01.028Z,72.0
2023-04-26T01:18:00.579Z,72.0
2023-04-26T01:19:08.561Z,71.9
2023-04-26T01:20:00.586Z,71.9
2023-04-26T01:21:02.765Z,71.9
2023-04-26T01:22:00.515Z,71.9
2023-04-26T01:23:00.522Z,71.9
2023-04-26T01:24:00.619Z,71.9
2023-04-26T01:25:00.855Z,71.9
2023-04-26T01:26:00.512Z,71.9
2023-04-26T01:27:00.688Z,71.9
2023-04-26T01:28:00.530Z,71.9
2023-04-26T01:29:00.540Z,72.0
2023-04-26T01:30:00.699Z,72.0
2023-04-26T01:31:00.579Z,72.2
2023-04-26T01:32:00.618Z,72.1
2023-04-26T01:33:00.595Z,71.9
2023-04-26T01:34:00.542Z,71.9
2023-04-26T01:35:00.863Z,71.9
2023-04-26T01:36:00.523Z,71.9
2023-04-26T01:37:00.564Z,71.9
2023-04-26T01:38:00.524Z,71.9
2023-04-26T01:39:00.554Z,71.9
2023-04-26T01:40:00.619Z,71.9
2023-04-26T01:41:00.506Z,71.9
2023-04-26T01:42:00.644Z,71.8
2023-04-26T01:43:00.485Z,71.8
2023-04-26T01:44:00.514Z,71.8
2023-04-26T01:45:00.508Z,71.8
2023-04-26T01:46:00.547Z,71.9
2023-04-26T01:47:00.519Z,71.9
2023-04-26T01:48:00.601Z,72.0
2023-04-26T01:49:00.653Z,72.0
2023-04-26T01:50:00.553Z,72.0
2023-04-26T01:51:00.513Z,72.0
2023-04-26T01:52:00.859Z,71.9
2023-04-26T01:53:00.594Z,71.8
2023-04-26T01:54:00.709Z,71.8
2023-04-26T01:55:00.602Z,71.8
2023-04-26T01:56:00.706Z,71.8
2023-04-26T01:57:00.538Z,71.8
2023-04-26T01:58:00.520Z,71.8
2023-04-26T01:59:00.517Z,71.8
2023-04-26T02:00:00.602Z,71.8
2023-04-26T02:01:04.542Z,71.8
2023-04-26T02:02:00.691Z,71.7
2023-04-26T02:03:00.558Z,71.7
2023-04-26T02:04:00.544Z,71.7
2023-04-26T02:05:00.543Z,71.7
2023-04-26T02:06:00.872Z,71.7
2023-04-26T02:07:00.517Z,71.8
2023-04-26T02:08:00.501Z,71.8
2023-04-26T02:09:00.554Z,71.8
2023-04-26T02:10:00.520Z,71.8
2023-04-26T02:11:00.569Z,71.7
2023-04-26T02:12:00.503Z,71.7
2023-04-26T02:13:00.697Z,71.6
2023-04-26T02:14:00.569Z,71.7
2023-04-26T02:15:00.562Z,71.7
2023-04-26T02:16:00.531Z,71.8
2023-04-26T02:17:00.521Z,71.9
2023-04-26T02:18:00.573Z,72.0
2023-04-26T02:19:00.520Z,72.0
2023-04-26T02:20:00.546Z,72.0
2023-04-26T02:21:00.555Z,72.1
2023-04-26T02:22:00.509Z,72.0
2023-04-26T02:23:00.503Z,72.1
2023-04-26T02:24:00.520Z,72.1
2023-04-26T02:25:00.553Z,72.1
2023-04-26T02:26:00.691Z,72.1
2023-04-26T02:27:00.539Z,72.2
2023-04-26T02:28:00.522Z,72.2
2023-04-26T02:29:00.499Z,72.2
2023-04-26T02:30:00.559Z,72.2
2023-04-26T02:31:01.310Z,72.3
2023-04-26T02:32:00.521Z,72.2
2023-04-26T02:33:00.550Z,72.1
2023-04-26T02:34:00.510Z,72.1
2023-04-26T02:35:00.515Z,72.2
2023-04-26T02:36:02.435Z,72.2
2023-04-26T02:37:00.634Z,72.2
2023-04-26T02:38:00.528Z,72.3
2023-04-26T02:39:00.519Z,72.3
2023-04-26T02:40:00.581Z,72.3
2023-04-26T02:41:01.480Z,72.3
2023-04-26T02:42:00.538Z,72.3
2023-04-26T02:43:00.614Z,72.2
2023-04-26T02:44:00.528Z,72.2
2023-04-26T02:45:00.517Z,72.2
2023-04-26T02:46:00.528Z,72.2
2023-04-26T02:47:00.630Z,72.2
2023-04-26T02:48:00.708Z,72.3
2023-04-26T02:49:00.516Z,72.3
2023-04-26T02:50:00.533Z,72.4
2023-04-26T02:51:00.509Z,72.5
2023-04-26T02:52:00.499Z,72.4
2023-04-26T02:53:00.518Z,72.4
2023-04-26T02:54:00.499Z,72.4
2023-04-26T02:55:01.104Z,72.5
2023-04-26T02:56:00.591Z,72.5
2023-04-26T02:57:00.499Z,72.6
2023-04-26T02:58:00.523Z,72.6
2023-04-26T02:59:00.561Z,72.6
2023-04-26T03:00:00.495Z,72.6
2023-04-26T03:01:01.650Z,72.6
2023-04-26T03:02:00.568Z,72.5
2023-04-26T03:03:00.863Z,72.5
2023-04-26T03:04:00.620Z,72.5
2023-04-26T03:05:00.606Z,72.5
2023-04-26T03:06:00.496Z,72.5
2023-04-26T03:07:02.268Z,72.5
2023-04-26T03:08:00.497Z,72.5
2023-04-26T03:09:00.509Z,72.5
2023-04-26T03:10:00.669Z,72.6
2023-04-26T03:11:00.502Z,72.6
2023-04-26T03:12:00.504Z,72.5
2023-04-26T03:13:00.527Z,72.5
2023-04-26T03:14:00.511Z,72.5
2023-04-26T03:15:00.505Z,72.5
2023-04-26T03:16:00.498Z,72.5
2023-04-26T03:17:00.911Z,72.5
2023-04-26T03:18:00.523Z,72.5
2023-04-26T03:19:00.521Z,72.5
2023-04-26T03:20:02.482Z,72.6
2023-04-26T03:21:00.572Z,72.5
2023-04-26T03:22:00.500Z,72.4
2023-04-26T03:23:00.513Z,72.4
2023-04-26T03:24:00.535Z,72.3
2023-04-26T03:25:00.633Z,72.3
2023-04-26T03:26:00.509Z,72.4
2023-04-26T03:27:00.536Z,72.4
2023-04-26T03:28:00.511Z,72.5
2023-04-26T03:29:01.003Z,72.6
2023-04-26T03:30:00.546Z,72.6
2023-04-26T03:31:00.518Z,72.7
2023-04-26T03:32:00.677Z,72.7
2023-04-26T03:33:00.560Z,72.7
2023-04-26T03:34:00.535Z,72.7
2023-04-26T03:35:00.668Z,72.6
2023-04-26T03:36:00.533Z,72.6
2023-04-26T03:37:00.960Z,72.6
2023-04-26T03:38:00.550Z,72.6
2023-04-26T03:39:00.543Z,72.6
2023-04-26T03:40:00.563Z,72.7
2023-04-26T03:41:00.504Z,72.7
2023-04-26T03:42:00.551Z,72.8
2023-04-26T03:43:00.590Z,72.6
2023-04-26T03:44:00.532Z,72.6
2023-04-26T03:45:00.539Z,72.7
2023-04-26T03:46:00.549Z,72.7
2023-04-26T03:47:00.531Z,72.9
2023-04-26T03:48:00.613Z,72.9
2023-04-26T03:49:00.518Z,72.8
2023-04-26T03:50:00.578Z,72.8
2023-04-26T03:51:00.908Z,72.8
2023-04-26T03:52:00.568Z,72.7
2023-04-26T03:53:00.495Z,72.8
2023-04-26T03:54:00.880Z,72.9
2023-04-26T03:55:00.610Z,72.8
2023-04-26T03:56:00.516Z,73.0
2023-04-26T03:57:00.543Z,72.9
2023-04-26T03:58:00.521Z,72.9
2023-04-26T03:59:00.500Z,72.9
2023-04-26T04:00:00.805Z,72.9
2023-04-26T04:01:00.520Z,72.9
2023-04-26T04:02:00.558Z,72.9
2023-04-26T04:03:00.589Z,72.7
2023-04-26T04:04:00.913Z,72.8
2023-04-26T04:05:00.841Z,72.8
2023-04-26T04:06:00.547Z,72.8
2023-04-26T04:07:00.549Z,72.8
2023-04-26T04:08:00.564Z,72.9
2023-04-26T04:09:00.504Z,72.9
2023-04-26T04:10:00.523Z,72.9
2023-04-26T04:11:00.522Z,73.0
2023-04-26T04:12:00.569Z,73.0
2023-04-26T04:13:00.523Z,73.0
2023-04-26T04:14:00.500Z,72.9
2023-04-26T04:15:00.807Z,72.9
2023-04-26T04:16:00.773Z,72.9
2023-04-26T04:17:00.519Z,72.9
2023-04-26T04:18:00.632Z,72.9
2023-04-26T04:19:00.492Z,72.9
2023-04-26T04:20:01.190Z,72.9
2023-04-26T04:21:00.506Z,72.9
2023-04-26T04:22:00.500Z,72.9
2023-04-26T04:23:00.545Z,72.8
2023-04-26T04:24:00.535Z,72.8
2023-04-26T04:25:00.508Z,72.8
2023-04-26T04:26:00.485Z,72.8
2023-04-26T04:27:00.609Z,72.8
2023-04-26T04:28:01.897Z,72.8
2023-04-26T04:29:00.505Z,72.7
2023-04-26T04:30:00.600Z,72.7
2023-04-26T04:31:00.547Z,72.7
2023-04-26T04:32:00.516Z,72.6
2023-04-26T04:33:00.578Z,72.6
2023-04-26T04:34:00.529Z,72.5
2023-04-26T04:35:00.677Z,72.5
2023-04-26T04:36:00.523Z,72.5
2023-04-26T04:37:00.727Z,72.5
2023-04-26T04:38:00.586Z,72.6
2023-04-26T04:39:00.522Z,72.6
2023-04-26T04:40:00.557Z,72.6
2023-04-26T04:41:00.510Z,72.6
2023-04-26T04:42:00.516Z,72.5
2023-04-26T04:43:00.503Z,72.4
2023-04-26T04:44:00.512Z,72.3
2023-04-26T04:45:00.563Z,72.4
2023-04-26T04:46:00.613Z,72.4
2023-04-26T04:47:00.710Z,72.4
2023-04-26T04:48:00.587Z,72.4
2023-04-26T04:49:00.620Z,72.5
2023-04-26T04:50:00.532Z,72.5
2023-04-26T04:51:00.525Z,72.5
2023-04-26T04:52:00.502Z,72.5
2023-04-26T04:53:00.615Z,72.4
2023-04-26T04:54:08.590Z,72.3
2023-04-26T04:55:00.502Z,72.4
2023-04-26T04:56:00.496Z,72.5
2023-04-26T04:57:00.556Z,72.6
2023-04-26T05:03:00.781Z,72.8
2023-04-26T05:04:00.811Z,72.8
2023-04-26T05:05:00.634Z,72.8
2023-04-26T05:06:00.488Z,72.8
2023-04-26T05:07:00.497Z,72.8
2023-04-26T05:08:00.517Z,72.8
2023-04-26T05:09:00.674Z,72.7
2023-04-26T05:10:00.713Z,72.8
2023-04-26T05:11:00.522Z,72.8
2023-04-26T05:12:00.494Z,72.7
2023-04-26T05:13:00.582Z,72.7
2023-04-26T05:14:00.682Z,72.7
2023-04-26T05:15:00.519Z,72.6
2023-04-26T05:16:00.527Z,72.7
2023-04-26T05:17:00.504Z,72.6
2023-04-26T05:18:00.554Z,72.7
2023-04-26T05:19:00.561Z,72.7
2023-04-26T05:20:00.573Z,72.7
2023-04-26T05:21:00.935Z,72.7
2023-04-26T05:22:00.516Z,72.7
2023-04-26T05:23:00.531Z,72.6
2023-04-26T05:24:00.513Z,72.5
2023-04-26T05:25:00.598Z,72.5
2023-04-26T05:26:01.036Z,72.5
2023-04-26T05:27:02.024Z,72.4
2023-04-26T05:28:00.510Z,72.4
2023-04-26T05:29:00.511Z,72.4
2023-04-26T05:30:00.507Z,72.3
2023-04-26T05:31:00.556Z,72.3
2023-04-26T05:32:00.602Z,72.2
2023-04-26T05:33:00.561Z,72.1
2023-04-26T05:34:00.552Z,72.0
2023-04-26T05:35:00.535Z,71.9
2023-04-26T05:36:00.714Z,71.8
2023-04-26T05:37:00.549Z,71.7
2023-04-26T05:38:00.541Z,71.6
2023-04-26T05:39:00.642Z,71.6
2023-04-26T05:40:00.676Z,71.7
2023-04-26T05:41:00.620Z,71.7
2023-04-26T05:42:00.670Z,71.5
2023-04-26T05:43:00.533Z,71.3
2023-04-26T05:44:00.547Z,71.2
2023-04-26T05:45:00.568Z,71.1
2023-04-26T05:46:00.587Z,71.1
2023-04-26T05:47:00.704Z,70.9
2023-04-26T05:48:00.601Z,70.8
2023-04-26T05:49:00.521Z,70.7
2023-04-26T05:50:00.510Z,70.7
2023-04-26T05:51:01.450Z,70.7
2023-04-26T05:52:00.585Z,70.8
2023-04-26T05:53:00.513Z,70.9
2023-04-26T05:54:00.520Z,70.7
2023-04-26T05:55:00.589Z,70.7
2023-04-26T05:56:00.542Z,70.4
2023-04-26T05:57:00.577Z,70.3
2023-04-26T05:58:00.571Z,70.1
2023-04-26T05:59:00.554Z,70.0
2023-04-26T06:00:01.895Z,70.0
2023-04-26T06:01:00.513Z,69.9
2023-04-26T06:02:00.568Z,69.7
2023-04-26T06:03:00.872Z,69.9
2023-04-26T06:04:01.741Z,70.0
2023-04-26T06:05:00.707Z,69.9
2023-04-26T06:06:00.615Z,69.9
2023-04-26T06:07:00.551Z,69.7
2023-04-26T06:08:00.554Z,69.5
2023-04-26T06:09:00.622Z,69.6
2023-04-26T06:10:00.526Z,69.6
2023-04-26T06:11:00.543Z,69.5
2023-04-26T06:12:00.502Z,69.4
2023-04-26T06:13:00.519Z,69.3
2023-04-26T06:14:00.499Z,69.1
2023-04-26T06:15:00.545Z,68.9
2023-04-26T06:16:00.498Z,68.8
2023-04-26T06:17:00.569Z,68.9
2023-04-26T06:18:00.596Z,68.9
2023-04-26T06:19:00.522Z,68.9
2023-04-26T06:20:00.580Z,68.5
2023-04-26T06:21:00.502Z,68.5
2023-04-26T06:22:00.654Z,68.6
2023-04-26T06:23:00.529Z,68.7
2023-04-26T06:24:00.510Z,68.3
2023-04-26T06:25:00.519Z,68.2
2023-04-26T06:26:00.519Z,68.2
2023-04-26T06:27:00.555Z,68.0
2023-04-26T06:28:00.533Z,67.5
2023-04-26T06:29:00.521Z,67.6
2023-04-26T06:30:00.649Z,67.8
2023-04-26T06:31:00.607Z,67.4
2023-04-26T06:32:00.524Z,67.0
2023-04-26T06:33:00.729Z,67.4
2023-04-26T06:34:00.489Z,67.0
2023-04-26T06:35:00.675Z,66.5
2023-04-26T06:36:00.519Z,65.9
2023-04-26T06:37:00.524Z,65.3
2023-04-26T06:38:00.498Z,65.3
2023-04-26T06:39:00.523Z,64.2
2023-04-26T06:40:00.523Z,63.3
2023-04-26T06:41:00.517Z,63.2
2023-04-26T06:42:00.589Z,63.0
2023-04-26T06:43:00.640Z,62.7
2023-04-26T06:44:00.529Z,61.8
2023-04-26T06:45:00.548Z,61.0
2023-04-26T06:46:00.536Z,61.2
2023-04-26T06:47:00.496Z,61.3
2023-04-26T06:48:00.826Z,61.0
2023-04-26T06:49:00.527Z,61.2
2023-04-26T06:50:00.618Z,60.8
2023-04-26T06:51:03.957Z,60.2
2023-04-26T06:52:00.515Z,60.2
2023-04-26T06:53:00.605Z,60.4
2023-04-26T06:54:00.528Z,59.9
2023-04-26T06:55:01.060Z,60.1
2023-04-26T06:56:00.516Z,60.3
2023-04-26T06:57:01.467Z,60.4
2023-04-26T07:03:00.651Z,59.0
2023-04-26T07:04:01.621Z,59.5
2023-04-26T07:05:00.777Z,59.4
2023-04-26T07:06:00.526Z,59.8
2023-04-26T07:07:00.788Z,60.0
2023-04-26T07:08:00.532Z,60.0
2023-04-26T07:09:01.339Z,60.1
2023-04-26T07:10:00.556Z,59.3
2023-04-26T07:11:00.520Z,57.9
2023-04-26T07:12:00.519Z,57.5
2023-04-26T07:13:00.537Z,56.2
2023-04-26T07:14:00.548Z,55.9
2023-04-26T07:15:00.647Z,55.3
2023-04-26T07:16:00.568Z,54.7
2023-04-26T07:17:00.512Z,52.6
2023-04-26T07:18:00.570Z,52.1
2023-04-26T07:19:00.525Z,51.5
2023-04-26T07:20:00.571Z,51.1
2023-04-26T07:21:00.527Z,51.4
2023-04-26T07:22:00.508Z,51.2
2023-04-26T07:23:00.511Z,50.1
2023-04-26T07:24:00.544Z,49.9
2023-04-26T07:25:00.550Z,49.4
2023-04-26T07:26:00.573Z,50.2
2023-04-26T07:27:00.526Z,50.2
2023-04-26T07:28:00.507Z,50.1
2023-04-26T07:29:00.516Z,50.5
2023-04-26T07:30:00.646Z,49.5
2023-04-26T07:31:00.661Z,50.6
2023-04-26T07:32:00.489Z,48.8
2023-04-26T07:33:00.666Z,49.6
2023-04-26T07:34:00.580Z,49.7
2023-04-26T07:35:00.715Z,48.1
2023-04-26T07:36:00.519Z,47.9
2023-04-26T07:37:00.594Z,48.0
2023-04-26T07:38:00.745Z,46.4
2023-04-26T07:39:00.489Z,46.9
2023-04-26T07:40:00.524Z,46.0
2023-04-26T07:41:00.521Z,45.8
2023-04-26T07:42:00.523Z,45.4
2023-04-26T07:43:00.514Z,45.2
2023-04-26T07:44:00.511Z,44.9
2023-04-26T07:45:00.575Z,44.1
2023-04-26T07:46:01.024Z,44.1
2023-04-26T07:47:00.522Z,44.7
2023-04-26T07:48:00.634Z,43.3
2023-04-26T07:49:00.513Z,43.8
2023-04-26T07:50:00.678Z,44.5
2023-04-26T07:51:10.268Z,43.1
2023-04-26T07:52:00.513Z,42.6
2023-04-26T07:53:00.532Z,43.3
2023-04-26T07:54:00.512Z,43.0
2023-04-26T07:55:00.518Z,42.5
2023-04-26T07:56:00.518Z,42.8
2023-04-26T07:57:00.520Z,42.5
2023-04-26T07:58:00.532Z,42.6
2023-04-26T07:59:00.586Z,43.1
2023-04-26T08:00:00.577Z,43.3
2023-04-26T08:01:00.506Z,44.4
2023-04-26T08:02:00.572Z,43.3
2023-04-26T08:03:00.694Z,44.5
2023-04-26T08:04:00.912Z,43.8
2023-04-26T08:05:00.867Z,43.5
2023-04-26T08:06:00.736Z,43.8
2023-04-26T08:07:00.513Z,44.1
2023-04-26T08:08:00.507Z,44.2
2023-04-26T08:09:00.524Z,43.6
2023-04-26T08:10:00.612Z,43.9
2023-04-26T08:11:00.505Z,43.4
2023-04-26T08:12:00.606Z,43.8
2023-04-26T08:13:00.508Z,44.3
2023-04-26T08:14:00.496Z,43.4
2023-04-26T08:15:00.872Z,43.6
2023-04-26T08:16:00.555Z,44.2
2023-04-26T08:17:00.581Z,44.0
2023-04-26T08:18:00.512Z,43.7
2023-04-26T08:19:00.520Z,43.8
2023-04-26T08:20:00.542Z,43.3
2023-04-26T08:21:01.099Z,43.1
2023-04-26T08:22:00.661Z,43.0
2023-04-26T08:23:00.551Z,42.7
2023-04-26T08:24:00.498Z,42.5
2023-04-26T08:25:00.558Z,43.3
2023-04-26T08:26:00.561Z,43.6
2023-04-26T08:27:00.541Z,43.6
2023-04-26T08:28:00.534Z,43.8
2023-04-26T08:29:00.501Z,43.9
2023-04-26T08:30:00.514Z,43.6
2023-04-26T08:31:00.531Z,44.2
2023-04-26T08:32:00.715Z,44.0
2023-04-26T08:33:00.599Z,44.1
2023-04-26T08:34:00.477Z,43.3
2023-04-26T08:35:00.527Z,42.4
2023-04-26T08:36:00.524Z,42.4
2023-04-26T08:37:00.536Z,42.6
2023-04-26T08:38:00.537Z,41.3
2023-04-26T08:39:00.501Z,41.0
2023-04-26T08:40:00.592Z,41.1
2023-04-26T08:41:01.470Z,41.6
2023-04-26T08:42:04.839Z,41.1
2023-04-26T08:43:00.884Z,41.2
2023-04-26T08:44:00.992Z,40.6
2023-04-26T08:45:00.531Z,40.2
2023-04-26T08:46:00.858Z,39.4
2023-04-26T08:47:08.861Z,39.2
2023-04-26T08:48:04.801Z,38.9
2023-04-26T08:49:08.089Z,38.1
2023-04-26T08:50:00.928Z,38.2
2023-04-26T08:51:00.865Z,37.7
2023-04-26T08:52:00.991Z,37.7
2023-04-26T08:53:00.513Z,37.2
2023-04-26T08:54:04.154Z,36.5
2023-04-26T08:55:01.343Z,36.4
2023-04-26T08:56:01.259Z,37.2
2023-04-26T08:57:00.974Z,36.9
2023-04-26T08:58:00.926Z,36.5
2023-04-26T08:59:00.488Z,36.4
2023-04-26T09:00:02.116Z,36.1
2023-04-26T09:01:01.550Z,36.2
2023-04-26T09:02:01.335Z,36.3
2023-04-26T09:03:00.658Z,35.3
2023-04-26T09:04:00.904Z,35.1
2023-04-26T09:05:00.868Z,34.9
2023-04-26T09:06:03.168Z,35.0
2023-04-26T09:07:03.951Z,34.9
2023-04-26T09:08:00.956Z,34.6
2023-04-26T09:09:02.149Z,34.2
2023-04-26T09:10:03.313Z,34.0
2023-04-26T09:11:01.985Z,34.7
2023-04-26T09:12:00.541Z,34.2
2023-04-26T09:13:00.541Z,34.6
2023-04-26T09:14:00.524Z,34.6
2023-04-26T09:15:00.523Z,34.9
2023-04-26T09:16:02.719Z,35.2
2023-04-26T09:17:00.532Z,35.1
2023-04-26T09:18:10.436Z,34.5
2023-04-26T09:19:00.576Z,34.5
2023-04-26T09:20:01.637Z,34.5
2023-04-26T09:21:04.893Z,34.6
2023-04-26T09:22:00.575Z,33.6
2023-04-26T09:23:08.546Z,34.0
2023-04-26T09:24:00.758Z,33.7
2023-04-26T09:25:01.488Z,33.1
2023-04-26T09:26:10.403Z,33.8
2023-04-26T09:27:01.027Z,34.3
2023-04-26T09:28:01.145Z,34.4
2023-04-26T09:29:10.437Z,34.7
2023-04-26T09:30:08.077Z,34.7
2023-04-26T09:31:00.556Z,34.7
2023-04-26T09:32:00.626Z,34.9
2023-04-26T09:33:02.008Z,35.0
2023-04-26T09:34:00.532Z,34.6
2023-04-26T09:35:00.585Z,34.3
2023-04-26T09:36:10.394Z,34.1
2023-04-26T09:37:00.584Z,34.0
2023-04-26T09:38:06.464Z,33.7
2023-04-26T09:39:00.507Z,34.1
2023-04-26T09:40:00.518Z,34.0
2023-04-26T09:41:00.527Z,34.0
2023-04-26T09:42:00.542Z,34.4
2023-04-26T09:43:10.411Z,34.2
2023-04-26T09:44:00.517Z,34.1
2023-04-26T09:45:07.946Z,33.8
2023-04-26T09:46:00.493Z,33.6
2023-04-26T09:47:00.581Z,33.7
2023-04-26T09:48:10.380Z,33.7
2023-04-26T09:49:00.810Z,33.4
2023-04-26T09:50:00.551Z,33.8
2023-04-26T09:51:03.888Z,34.0
2023-04-26T09:52:02.778Z,34.3
2023-04-26T09:53:00.519Z,34.8
2023-04-26T09:54:00.530Z,34.3
2023-04-26T09:55:00.480Z,34.3
2023-04-26T09:56:10.386Z,34.7
2023-04-26T09:57:00.504Z,34.5
2023-04-26T09:58:06.836Z,34.5
2023-04-26T09:59:00.623Z,34.6
2023-04-26T10:00:05.781Z,34.1
2023-04-26T10:01:01.951Z,34.1
2023-04-26T10:02:00.829Z,34.2
2023-04-26T10:03:00.937Z,34.3
2023-04-26T10:04:01.022Z,33.3
2023-04-26T10:05:00.927Z,33.3
2023-04-26T10:06:00.590Z,33.4
2023-04-26T10:07:01.018Z,33.7
2023-04-26T10:08:01.200Z,33.9
2023-04-26T10:09:00.807Z,34.0
2023-04-26T10:10:00.771Z,34.2
2023-04-26T10:11:02.383Z,34.4
2023-04-26T10:12:00.779Z,34.2
2023-04-26T10:13:00.530Z,34.5
2023-04-26T10:14:00.654Z,33.8
2023-04-26T10:15:02.550Z,34.0
2023-04-26T10:16:03.128Z,34.2
2023-04-26T10:17:02.484Z,34.1
2023-04-26T10:18:00.620Z,34.1
2023-04-26T10:19:00.559Z,34.0
2023-04-26T10:20:01.730Z,34.3
2023-04-26T10:21:05.403Z,34.4
2023-04-26T10:22:09.408Z,34.7
2023-04-26T10:23:00.910Z,34.9
2023-04-26T10:24:00.570Z,35.0
2023-04-26T10:25:00.534Z,34.9
2023-04-26T10:26:00.508Z,35.0
2023-04-26T10:27:00.693Z,34.7
2023-04-26T10:28:00.568Z,35.1
2023-04-26T10:29:02.576Z,35.1
2023-04-26T10:30:01.528Z,34.9
2023-04-26T10:31:00.521Z,35.2
2023-04-26T10:32:01.762Z,35.0
2023-04-26T10:33:00.577Z,35.0
2023-04-26T10:34:11.968Z,34.7
2023-04-26T10:35:08.756Z,34.6
2023-04-26T10:36:00.530Z,35.0
2023-04-26T10:37:10.395Z,35.3
2023-04-26T10:38:00.528Z,35.2
2023-04-26T10:39:10.407Z,35.3
2023-04-26T10:40:10.409Z,35.3
2023-04-26T10:41:10.385Z,35.4
2023-04-26T10:42:10.392Z,35.6
2023-04-26T10:43:07.887Z,35.7
2023-04-26T10:44:10.402Z,35.0
2023-04-26T10:45:10.346Z,34.4
2023-04-26T10:46:10.433Z,34.4
2023-04-26T10:47:00.492Z,34.7
2023-04-26T10:48:10.479Z,34.6
2023-04-26T10:49:10.404Z,34.7
2023-04-26T10:50:02.981Z,34.8
2023-04-26T10:51:00.521Z,34.9
2023-04-26T10:52:10.407Z,34.9
2023-04-26T10:53:01.584Z,35.2
2023-04-26T10:54:00.664Z,35.2
2023-04-26T10:55:00.781Z,35.8
2023-04-26T10:56:00.530Z,35.9
2023-04-26T10:57:00.524Z,36.0
2023-04-26T10:58:00.529Z,36.1
2023-04-26T10:59:22.506Z,36.2
2023-04-26T11:00:07.911Z,36.5
2023-04-26T11:01:08.893Z,36.3
2023-04-26T11:02:00.497Z,36.4
2023-04-26T11:03:02.506Z,36.3
2023-04-26T11:04:05.180Z,35.9
2023-04-26T11:05:01.613Z,35.9
2023-04-26T11:06:04.642Z,35.8
2023-04-26T11:07:02.022Z,35.9
2023-04-26T11:08:04.861Z,35.9
2023-04-26T11:09:00.541Z,36.2
2023-04-26T11:10:00.554Z,36.1
2023-04-26T11:11:01.538Z,36.1
2023-04-26T11:12:00.740Z,36.3
2023-04-26T11:13:01.201Z,36.1
2023-04-26T11:14:00.900Z,35.6
2023-04-26T11:15:02.684Z,35.9
2023-04-26T11:16:01.611Z,35.8
2023-04-26T11:17:02.479Z,35.6
2023-04-26T11:18:02.348Z,35.4
2023-04-26T11:19:00.525Z,35.4
2023-04-26T11:20:03.613Z,35.3
2023-04-26T11:21:00.924Z,35.6
2023-04-26T11:22:01.227Z,35.8
2023-04-26T11:23:00.779Z,35.8
2023-04-26T11:24:00.509Z,35.7
2023-04-26T11:25:00.555Z,35.8
2023-04-26T11:26:01.585Z,35.6
2023-04-26T11:27:00.513Z,35.6
2023-04-26T11:28:01.362Z,35.7
2023-04-26T11:29:00.545Z,35.8
2023-04-26T11:30:02.802Z,36.0
2023-04-26T11:31:01.740Z,36.2
2023-04-26T11:32:01.181Z,36.3
2023-04-26T11:33:01.341Z,36.2
2023-04-26T11:34:03.194Z,36.0
2023-04-26T11:35:00.510Z,36.0
2023-04-26T11:36:01.064Z,36.1
2023-04-26T11:37:01.109Z,36.0
2023-04-26T11:38:02.903Z,35.9
2023-04-26T11:39:00.559Z,35.9
2023-04-26T11:40:00.565Z,35.9
2023-04-26T11:41:01.560Z,36.2
2023-04-26T11:42:04.680Z,37.0
2023-04-26T11:43:01.180Z,37.1
2023-04-26T11:44:00.619Z,37.2
2023-04-26T11:45:00.553Z,38.0
2023-04-26T11:46:00.982Z,38.6
2023-04-26T11:47:00.886Z,38.9
2023-04-26T11:48:03.010Z,39.2
2023-04-26T11:49:00.599Z,39.1
2023-04-26T11:50:00.833Z,39.6
2023-04-26T11:51:02.038Z,39.8
2023-04-26T11:52:01.305Z,39.7
2023-04-26T11:53:00.965Z,40.1
2023-04-26T11:54:00.529Z,40.2
2023-04-26T11:55:01.445Z,40.5
2023-04-26T11:56:00.556Z,40.3
2023-04-26T11:57:00.868Z,40.9
2023-04-26T11:58:01.393Z,41.2
2023-04-26T11:59:00.654Z,41.5
2023-04-26T12:00:07.988Z,42.0
2023-04-26T12:01:01.122Z,42.0
2023-04-26T12:02:04.811Z,42.2
2023-04-26T12:03:04.834Z,41.6
2023-04-26T12:04:00.683Z,41.0
2023-04-26T12:05:00.761Z,40.7
2023-04-26T12:06:00.520Z,40.5
2023-04-26T12:07:03.012Z,40.3
2023-04-26T12:08:00.552Z,39.5
2023-04-26T12:09:01.135Z,39.1
2023-04-26T12:10:10.381Z,39.3
2023-04-26T12:11:01.044Z,39.4
2023-04-26T12:12:01.286Z,39.3
2023-04-26T12:13:01.013Z,39.3
2023-04-26T12:14:00.940Z,39.0
2023-04-26T12:15:00.511Z,38.9
2023-04-26T12:16:15.147Z,39.1
2023-04-26T12:17:01.099Z,39.2
2023-04-26T12:18:08.574Z,38.9
2023-04-26T12:19:04.052Z,38.9
2023-04-26T12:20:07.642Z,39.0
2023-04-26T12:21:00.621Z,38.9
2023-04-26T12:22:00.514Z,38.7
2023-04-26T12:23:01.743Z,38.6
2023-04-26T12:24:00.562Z,37.9
2023-04-26T12:25:07.941Z,37.9
2023-04-26T12:26:00.524Z,37.9
2023-04-26T12:27:02.507Z,38.0
2023-04-26T12:28:00.792Z,38.4
2023-04-26T12:29:00.525Z,39.0
2023-04-26T12:30:00.665Z,39.4
2023-04-26T12:31:00.501Z,40.1
2023-04-26T12:32:01.041Z,40.2
2023-04-26T12:33:15.560Z,40.3
2023-04-26T12:34:00.510Z,40.0
2023-04-26T12:35:00.516Z,40.0
2023-04-26T12:36:10.415Z,40.1
2023-04-26T12:37:00.511Z,40.0
2023-04-26T12:38:00.552Z,40.5
2023-04-26T12:39:00.534Z,40.9
2023-04-26T12:40:00.533Z,40.8
2023-04-26T12:41:00.544Z,40.9
2023-04-26T12:42:00.506Z,41.1
2023-04-26T12:43:00.575Z,41.1
2023-04-26T12:44:00.556Z,41.5
2023-04-26T12:45:00.543Z,41.6
2023-04-26T12:46:00.609Z,41.2
2023-04-26T12:47:00.534Z,40.6
2023-04-26T12:48:00.592Z,41.1
2023-04-26T12:49:00.583Z,40.5
2023-04-26T12:50:00.529Z,40.9
2023-04-26T12:51:00.653Z,41.1
2023-04-26T12:52:00.542Z,40.9
2023-04-26T12:53:00.533Z,40.4
2023-04-26T12:54:00.766Z,40.3
2023-04-26T12:55:00.501Z,40.4
2023-04-26T12:56:00.537Z,40.9
2023-04-26T12:57:00.521Z,40.5
2023-04-26T12:58:00.514Z,40.1
2023-04-26T12:59:00.540Z,40.4
2023-04-26T13:00:00.584Z,41.0
2023-04-26T13:01:00.614Z,40.5
2023-04-26T13:02:00.607Z,40.1
2023-04-26T13:03:00.619Z,39.8
2023-04-26T13:04:00.690Z,39.0
2023-04-26T13:05:01.217Z,38.7
2023-04-26T13:06:00.661Z,38.3
2023-04-26T13:07:00.571Z,38.8
2023-04-26T13:08:00.552Z,38.4
2023-04-26T13:09:00.548Z,37.9
2023-04-26T13:10:00.812Z,37.5
2023-04-26T13:11:00.576Z,37.3
2023-04-26T13:12:00.535Z,37.1
2023-04-26T13:13:00.527Z,37.2
2023-04-26T13:14:00.479Z,36.9
2023-04-26T13:15:00.597Z,36.5
2023-04-26T13:16:00.653Z,36.6
2023-04-26T13:17:00.498Z,36.9
2023-04-26T13:18:00.508Z,37.0
2023-04-26T13:19:00.531Z,37.1
2023-04-26T13:20:01.181Z,37.1
2023-04-26T13:21:00.489Z,37.3
2023-04-26T13:22:02.446Z,37.1
2023-04-26T13:23:00.533Z,37.0
2023-04-26T13:24:00.687Z,36.6
2023-04-26T13:25:00.605Z,37.2
2023-04-26T13:26:00.534Z,37.5
2023-04-26T13:27:00.678Z,37.6
2023-04-26T13:28:00.515Z,37.7